sensor_id;sensor_type;location;lat;lon;timestamp;temperature;humidity
44359;DHT22;30077;52.474;13.326;2023-05-09T00:00:19;10.40;99.90
44359;DHT22;30077;52.474;13.326;2023-05-09T00:05:20;10.50;99.90
44359;DHT22;30077;52.474;13.326;2023-05-09T00:10:23;10.40;99.90
44359;DHT22;30077;52.474;13.326;2023-05-09T00:15:24;10.40;99.90
44359;DHT22;30077;52.474;13.326;2023-05-09T00:20:25;10.40;99.90
44359;DHT22;30077;52.474;13.326;2023-05-09T00:25:25;10.30;99.90
44359;DHT22;30077;52.474;13.326;2023-05-09T00:30:26;10.30;99.90
44359;DHT22;30077;52.474;13.326;2023-05-09T00:35:26;10.30;99.90
44359;DHT22;30077;52.474;13.326;2023-05-09T00:40:27;10.20;99.90
44359;DHT22;30077;52.474;13.326;2023-05-09T00:45:28;10.10;99.90
44359;DHT22;30077;52.474;13.326;2023-05-09T00:50:29;10.10;99.90
44359;DHT22;30077;52.474;13.326;2023-05-09T00:55:30;10.10;99.90
44359;DHT22;30077;52.474;13.326;2023-05-09T01:00:31;10.00;99.90
44359;DHT22;30077;52.474;13.326;2023-05-09T01:05:54;10.00;99.90
44359;DHT22;30077;52.474;13.326;2023-05-09T01:11:20;9.90;99.90
44359;DHT22;30077;52.474;13.326;2023-05-09T01:16:34;9.90;99.90
44359;DHT22;30077;52.474;13.326;2023-05-09T01:21:39;9.90;99.90
44359;DHT22;30077;52.474;13.326;2023-05-09T01:26:58;9.90;99.90
44359;DHT22;30077;52.474;13.326;2023-05-09T01:32:18;9.80;99.90
44359;DHT22;30077;52.474;13.326;2023-05-09T01:37:23;9.80;99.90
44359;DHT22;30077;52.474;13.326;2023-05-09T01:42:37;9.80;99.90
44359;DHT22;30077;52.474;13.326;2023-05-09T01:47:39;9.80;99.90
44359;DHT22;30077;52.474;13.326;2023-05-09T01:52:46;9.70;99.90
44359;DHT22;30077;52.474;13.326;2023-05-09T01:57:48;9.60;99.90
44359;DHT22;30077;52.474;13.326;2023-05-09T02:02:51;9.60;99.90
44359;DHT22;30077;52.474;13.326;2023-05-09T02:07:52;9.50;99.90
44359;DHT22;30077;52.474;13.326;2023-05-09T02:12:54;9.60;99.90
44359;DHT22;30077;52.474;13.326;2023-05-09T02:17:55;9.50;99.90
44359;DHT22;30077;52.474;13.326;2023-05-09T02:22:56;9.50;99.90
44359;DHT22;30077;52.474;13.326;2023-05-09T02:27:57;9.40;99.90
44359;DHT22;30077;52.474;13.326;2023-05-09T02:33:02;9.40;99.90
44359;DHT22;30077;52.474;13.326;2023-05-09T02:38:04;9.40;99.90
44359;DHT22;30077;52.474;13.326;2023-05-09T02:43:05;9.30;99.90
44359;DHT22;30077;52.474;13.326;2023-05-09T02:48:06;9.30;99.90
44359;DHT22;30077;52.474;13.326;2023-05-09T02:53:06;9.20;99.90
44359;DHT22;30077;52.474;13.326;2023-05-09T02:58:07;9.20;99.90
44359;DHT22;30077;52.474;13.326;2023-05-09T03:03:08;9.10;99.90
44359;DHT22;30077;52.474;13.326;2023-05-09T03:08:09;9.10;99.90
44359;DHT22;30077;52.474;13.326;2023-05-09T03:13:09;9.00;99.90
44359;DHT22;30077;52.474;13.326;2023-05-09T03:18:10;9.00;99.90
44359;DHT22;30077;52.474;13.326;2023-05-09T03:23:12;9.00;99.90
44359;DHT22;30077;52.474;13.326;2023-05-09T03:28:13;8.90;99.90
44359;DHT22;30077;52.474;13.326;2023-05-09T03:33:13;8.90;99.90
44359;DHT22;30077;52.474;13.326;2023-05-09T03:38:14;8.90;99.90
44359;DHT22;30077;52.474;13.326;2023-05-09T03:43:14;8.90;99.90
44359;DHT22;30077;52.474;13.326;2023-05-09T03:48:15;8.90;99.90
44359;DHT22;30077;52.474;13.326;2023-05-09T03:53:16;8.90;99.90
44359;DHT22;30077;52.474;13.326;2023-05-09T03:58:16;9.00;99.90
44359;DHT22;30077;52.474;13.326;2023-05-09T04:03:18;9.10;99.90
44359;DHT22;30077;52.474;13.326;2023-05-09T04:08:19;9.20;99.90
44359;DHT22;30077;52.474;13.326;2023-05-09T04:13:19;9.40;99.90
44359;DHT22;30077;52.474;13.326;2023-05-09T04:18:20;9.50;99.90
44359;DHT22;30077;52.474;13.326;2023-05-09T04:23:21;9.70;99.90
44359;DHT22;30077;52.474;13.326;2023-05-09T04:28:21;9.80;99.90
44359;DHT22;30077;52.474;13.326;2023-05-09T04:33:22;9.90;99.90
44359;DHT22;30077;52.474;13.326;2023-05-09T04:38:23;10.00;99.90
44359;DHT22;30077;52.474;13.326;2023-05-09T04:43:23;10.00;99.90
44359;DHT22;30077;52.474;13.326;2023-05-09T04:48:27;10.10;99.90
44359;DHT22;30077;52.474;13.326;2023-05-09T04:53:27;10.20;99.90
44359;DHT22;30077;52.474;13.326;2023-05-09T04:58:28;10.30;99.90
44359;DHT22;30077;52.474;13.326;2023-05-09T05:03:30;10.30;99.90
44359;DHT22;30077;52.474;13.326;2023-05-09T05:08:31;10.30;99.90
44359;DHT22;30077;52.474;13.326;2023-05-09T05:13:31;10.40;99.90
44359;DHT22;30077;52.474;13.326;2023-05-09T05:18:32;10.50;99.90
44359;DHT22;30077;52.474;13.326;2023-05-09T05:23:32;10.70;99.90
44359;DHT22;30077;52.474;13.326;2023-05-09T05:28:33;10.80;99.90
44359;DHT22;30077;52.474;13.326;2023-05-09T05:33:33;10.80;99.90
44359;DHT22;30077;52.474;13.326;2023-05-09T05:38:34;10.90;99.90
44359;DHT22;30077;52.474;13.326;2023-05-09T05:43:34;10.90;99.90
44359;DHT22;30077;52.474;13.326;2023-05-09T05:48:34;11.10;99.90
44359;DHT22;30077;52.474;13.326;2023-05-09T05:53:35;11.30;99.90
44359;DHT22;30077;52.474;13.326;2023-05-09T05:58:35;11.30;99.90
44359;DHT22;30077;52.474;13.326;2023-05-09T06:03:36;11.30;99.90
44359;DHT22;30077;52.474;13.326;2023-05-09T06:08:36;11.50;99.90
44359;DHT22;30077;52.474;13.326;2023-05-09T06:13:37;11.50;99.90
44359;DHT22;30077;52.474;13.326;2023-05-09T06:18:37;11.60;99.90
44359;DHT22;30077;52.474;13.326;2023-05-09T06:23:39;11.70;99.90
44359;DHT22;30077;52.474;13.326;2023-05-09T06:28:39;11.80;99.90
44359;DHT22;30077;52.474;13.326;2023-05-09T06:33:42;11.80;99.90
44359;DHT22;30077;52.474;13.326;2023-05-09T06:38:42;11.90;99.90
44359;DHT22;30077;52.474;13.326;2023-05-09T06:43:42;12.00;99.90
44359;DHT22;30077;52.474;13.326;2023-05-09T06:48:43;12.10;99.90
44359;DHT22;30077;52.474;13.326;2023-05-09T06:53:44;12.20;99.90
44359;DHT22;30077;52.474;13.326;2023-05-09T06:58:44;12.30;99.90
44359;DHT22;30077;52.474;13.326;2023-05-09T07:03:45;12.30;99.70
44359;DHT22;30077;52.474;13.326;2023-05-09T07:08:47;12.40;99.70
44359;DHT22;30077;52.474;13.326;2023-05-09T07:13:48;12.50;99.40
44359;DHT22;30077;52.474;13.326;2023-05-09T07:18:48;12.60;98.90
44359;DHT22;30077;52.474;13.326;2023-05-09T07:23:49;12.70;98.00
44359;DHT22;30077;52.474;13.326;2023-05-09T07:28:49;12.70;98.20
44359;DHT22;30077;52.474;13.326;2023-05-09T07:33:50;12.80;98.40
44359;DHT22;30077;52.474;13.326;2023-05-09T07:38:50;13.00;97.50
44359;DHT22;30077;52.474;13.326;2023-05-09T07:43:52;13.10;96.90
44359;DHT22;30077;52.474;13.326;2023-05-09T07:48:53;13.30;96.60
44359;DHT22;30077;52.474;13.326;2023-05-09T07:53:53;13.30;96.00
44359;DHT22;30077;52.474;13.326;2023-05-09T07:58:55;13.40;95.90
44359;DHT22;30077;52.474;13.326;2023-05-09T08:03:56;13.50;96.00
44359;DHT22;30077;52.474;13.326;2023-05-09T08:08:56;13.60;96.20
44359;DHT22;30077;52.474;13.326;2023-05-09T08:13:57;13.60;95.10
44359;DHT22;30077;52.474;13.326;2023-05-09T08:18:57;13.80;95.30
44359;DHT22;30077;52.474;13.326;2023-05-09T08:23:58;14.00;94.80
44359;DHT22;30077;52.474;13.326;2023-05-09T08:28:58;14.10;93.70
44359;DHT22;30077;52.474;13.326;2023-05-09T08:34:00;14.30;93.40
44359;DHT22;30077;52.474;13.326;2023-05-09T08:39:00;14.30;92.30
44359;DHT22;30077;52.474;13.326;2023-05-09T08:44:01;14.40;91.70
44359;DHT22;30077;52.474;13.326;2023-05-09T08:49:04;14.50;91.20
44359;DHT22;30077;52.474;13.326;2023-05-09T08:54:06;14.70;91.10
44359;DHT22;30077;52.474;13.326;2023-05-09T08:59:07;14.80;91.30
44359;DHT22;30077;52.474;13.326;2023-05-09T09:04:08;14.80;91.30
44359;DHT22;30077;52.474;13.326;2023-05-09T09:09:12;14.80;90.90
44359;DHT22;30077;52.474;13.326;2023-05-09T09:14:22;14.90;90.50
44359;DHT22;30077;52.474;13.326;2023-05-09T09:19:29;14.90;90.30
44359;DHT22;30077;52.474;13.326;2023-05-09T09:24:29;15.10;90.70
44359;DHT22;30077;52.474;13.326;2023-05-09T09:29:32;15.30;89.70
44359;DHT22;30077;52.474;13.326;2023-05-09T09:34:33;15.30;87.20
44359;DHT22;30077;52.474;13.326;2023-05-09T09:39:33;15.50;86.40
44359;DHT22;30077;52.474;13.326;2023-05-09T09:44:34;15.70;85.50
44359;DHT22;30077;52.474;13.326;2023-05-09T09:49:35;15.80;85.60
44359;DHT22;30077;52.474;13.326;2023-05-09T09:54:35;15.70;86.30
44359;DHT22;30077;52.474;13.326;2023-05-09T09:59:37;15.90;85.20
44359;DHT22;30077;52.474;13.326;2023-05-09T10:04:38;16.00;85.50
44359;DHT22;30077;52.474;13.326;2023-05-09T10:09:40;16.20;83.50
44359;DHT22;30077;52.474;13.326;2023-05-09T10:14:43;16.20;84.60
44359;DHT22;30077;52.474;13.326;2023-05-09T10:19:45;16.30;83.60
44359;DHT22;30077;52.474;13.326;2023-05-09T10:24:54;16.30;83.40
44359;DHT22;30077;52.474;13.326;2023-05-09T10:30:03;16.30;83.20
44359;DHT22;30077;52.474;13.326;2023-05-09T10:35:08;16.50;83.40
44359;DHT22;30077;52.474;13.326;2023-05-09T10:40:10;16.60;82.80
44359;DHT22;30077;52.474;13.326;2023-05-09T10:45:14;16.60;81.30
44359;DHT22;30077;52.474;13.326;2023-05-09T10:50:15;16.70;80.10
44359;DHT22;30077;52.474;13.326;2023-05-09T10:55:17;16.90;80.00
44359;DHT22;30077;52.474;13.326;2023-05-09T11:00:23;17.00;79.50
44359;DHT22;30077;52.474;13.326;2023-05-09T11:05:24;17.00;79.30
44359;DHT22;30077;52.474;13.326;2023-05-09T11:10:24;16.90;78.10
44359;DHT22;30077;52.474;13.326;2023-05-09T11:15:26;17.00;79.20
44359;DHT22;30077;52.474;13.326;2023-05-09T11:20:27;17.20;78.20
44359;DHT22;30077;52.474;13.326;2023-05-09T11:25:28;17.30;77.80
44359;DHT22;30077;52.474;13.326;2023-05-09T11:30:39;17.30;76.60
44359;DHT22;30077;52.474;13.326;2023-05-09T11:35:42;17.50;76.90
44359;DHT22;30077;52.474;13.326;2023-05-09T11:40:43;17.50;78.50
44359;DHT22;30077;52.474;13.326;2023-05-09T11:45:45;17.60;78.80
44359;DHT22;30077;52.474;13.326;2023-05-09T11:50:46;17.60;77.70
44359;DHT22;30077;52.474;13.326;2023-05-09T11:55:47;17.80;75.70
44359;DHT22;30077;52.474;13.326;2023-05-09T12:00:48;17.90;76.00
44359;DHT22;30077;52.474;13.326;2023-05-09T12:05:50;18.00;75.30
44359;DHT22;30077;52.474;13.326;2023-05-09T12:10:51;17.90;74.50
44359;DHT22;30077;52.474;13.326;2023-05-09T12:15:59;18.00;74.70
44359;DHT22;30077;52.474;13.326;2023-05-09T12:21:00;18.10;74.80
44359;DHT22;30077;52.474;13.326;2023-05-09T12:26:01;18.10;75.90
44359;DHT22;30077;52.474;13.326;2023-05-09T12:31:02;18.10;74.00
44359;DHT22;30077;52.474;13.326;2023-05-09T12:36:05;18.10;74.70
44359;DHT22;30077;52.474;13.326;2023-05-09T12:41:07;18.30;74.80
44359;DHT22;30077;52.474;13.326;2023-05-09T12:46:09;18.30;75.20
44359;DHT22;30077;52.474;13.326;2023-05-09T12:51:10;18.20;75.10
44359;DHT22;30077;52.474;13.326;2023-05-09T12:56:18;18.20;74.40
44359;DHT22;30077;52.474;13.326;2023-05-09T13:01:21;18.30;74.50
44359;DHT22;30077;52.474;13.326;2023-05-09T13:06:22;18.40;74.70
44359;DHT22;30077;52.474;13.326;2023-05-09T13:11:23;18.50;75.10
44359;DHT22;30077;52.474;13.326;2023-05-09T13:16:25;18.60;74.90
44359;DHT22;30077;52.474;13.326;2023-05-09T13:21:26;18.50;74.60
44359;DHT22;30077;52.474;13.326;2023-05-09T13:26:26;18.60;73.40
44359;DHT22;30077;52.474;13.326;2023-05-09T13:31:27;18.50;73.50
44359;DHT22;30077;52.474;13.326;2023-05-09T13:36:27;18.60;74.30
44359;DHT22;30077;52.474;13.326;2023-05-09T13:41:28;18.60;74.10
44359;DHT22;30077;52.474;13.326;2023-05-09T13:46:31;18.70;72.90
44359;DHT22;30077;52.474;13.326;2023-05-09T13:51:31;18.70;73.50
44359;DHT22;30077;52.474;13.326;2023-05-09T13:56:32;18.80;73.30
44359;DHT22;30077;52.474;13.326;2023-05-09T14:01:33;18.80;72.90
44359;DHT22;30077;52.474;13.326;2023-05-09T14:06:34;18.80;72.90
44359;DHT22;30077;52.474;13.326;2023-05-09T14:11:34;18.70;73.30
44359;DHT22;30077;52.474;13.326;2023-05-09T14:16:35;18.80;72.90
44359;DHT22;30077;52.474;13.326;2023-05-09T14:21:35;18.70;72.30
44359;DHT22;30077;52.474;13.326;2023-05-09T14:26:37;18.80;72.20
44359;DHT22;30077;52.474;13.326;2023-05-09T14:31:37;18.80;72.20
44359;DHT22;30077;52.474;13.326;2023-05-09T14:36:38;18.80;71.50
44359;DHT22;30077;52.474;13.326;2023-05-09T14:41:38;18.90;72.30
44359;DHT22;30077;52.474;13.326;2023-05-09T14:46:39;18.90;71.70
44359;DHT22;30077;52.474;13.326;2023-05-09T14:51:39;18.70;71.80
44359;DHT22;30077;52.474;13.326;2023-05-09T14:56:40;18.80;71.80
44359;DHT22;30077;52.474;13.326;2023-05-09T15:01:40;18.90;71.90
44359;DHT22;30077;52.474;13.326;2023-05-09T15:06:41;18.90;71.80
44359;DHT22;30077;52.474;13.326;2023-05-09T15:11:42;18.90;71.80
44359;DHT22;30077;52.474;13.326;2023-05-09T15:16:44;19.00;71.50
44359;DHT22;30077;52.474;13.326;2023-05-09T15:21:45;19.10;71.40
44359;DHT22;30077;52.474;13.326;2023-05-09T15:26:46;19.00;71.40
44359;DHT22;30077;52.474;13.326;2023-05-09T15:31:47;18.90;71.30
44359;DHT22;30077;52.474;13.326;2023-05-09T15:36:48;18.90;71.80
44359;DHT22;30077;52.474;13.326;2023-05-09T15:41:48;18.90;71.90
44359;DHT22;30077;52.474;13.326;2023-05-09T15:46:48;18.90;71.70
44359;DHT22;30077;52.474;13.326;2023-05-09T15:51:49;18.90;71.00
44359;DHT22;30077;52.474;13.326;2023-05-09T15:56:50;19.00;71.70
44359;DHT22;30077;52.474;13.326;2023-05-09T16:01:50;19.10;71.60
44359;DHT22;30077;52.474;13.326;2023-05-09T16:06:51;19.40;70.50
44359;DHT22;30077;52.474;13.326;2023-05-09T16:11:52;19.70;70.10
44359;DHT22;30077;52.474;13.326;2023-05-09T16:16:52;19.90;70.40
44359;DHT22;30077;52.474;13.326;2023-05-09T16:21:54;20.00;70.10
44359;DHT22;30077;52.474;13.326;2023-05-09T16:26:55;20.50;69.40
44359;DHT22;30077;52.474;13.326;2023-05-09T16:31:55;20.60;69.20
44359;DHT22;30077;52.474;13.326;2023-05-09T16:36:57;21.00;68.20
44359;DHT22;30077;52.474;13.326;2023-05-09T16:41:57;22.30;66.60
44359;DHT22;30077;52.474;13.326;2023-05-09T16:46:58;22.50;65.70
44359;DHT22;30077;52.474;13.326;2023-05-09T16:51:59;22.50;65.80
44359;DHT22;30077;52.474;13.326;2023-05-09T16:56:59;22.00;66.50
44359;DHT22;30077;52.474;13.326;2023-05-09T17:02:00;21.80;67.10
44359;DHT22;30077;52.474;13.326;2023-05-09T17:07:00;21.10;68.20
44359;DHT22;30077;52.474;13.326;2023-05-09T17:12:01;20.20;69.80
44359;DHT22;30077;52.474;13.326;2023-05-09T17:17:02;19.70;70.40
44359;DHT22;30077;52.474;13.326;2023-05-09T17:22:02;19.20;71.90
44359;DHT22;30077;52.474;13.326;2023-05-09T17:27:04;18.80;73.30
44359;DHT22;30077;52.474;13.326;2023-05-09T17:32:05;18.50;73.90
44359;DHT22;30077;52.474;13.326;2023-05-09T17:37:06;18.30;75.10
44359;DHT22;30077;52.474;13.326;2023-05-09T17:42:08;18.10;75.80
44359;DHT22;30077;52.474;13.326;2023-05-09T17:47:09;18.10;76.00
44359;DHT22;30077;52.474;13.326;2023-05-09T17:52:11;17.90;76.40
44359;DHT22;30077;52.474;13.326;2023-05-09T17:57:12;17.60;77.10
44359;DHT22;30077;52.474;13.326;2023-05-09T18:02:12;17.50;77.40
44359;DHT22;30077;52.474;13.326;2023-05-09T18:07:13;17.40;78.10
44359;DHT22;30077;52.474;13.326;2023-05-09T18:12:14;17.30;78.30
44359;DHT22;30077;52.474;13.326;2023-05-09T18:17:15;17.10;78.50
44359;DHT22;30077;52.474;13.326;2023-05-09T18:22:15;17.00;78.90
44359;DHT22;30077;52.474;13.326;2023-05-09T18:27:17;16.80;79.30
44359;DHT22;30077;52.474;13.326;2023-05-09T18:32:18;16.70;79.70
44359;DHT22;30077;52.474;13.326;2023-05-09T18:37:19;16.60;80.50
44359;DHT22;30077;52.474;13.326;2023-05-09T18:42:21;16.40;80.50
44359;DHT22;30077;52.474;13.326;2023-05-09T18:47:22;16.30;80.80
44359;DHT22;30077;52.474;13.326;2023-05-09T18:52:23;16.30;80.70
44359;DHT22;30077;52.474;13.326;2023-05-09T18:57:23;16.20;80.90
44359;DHT22;30077;52.474;13.326;2023-05-09T19:02:24;16.10;81.10
44359;DHT22;30077;52.474;13.326;2023-05-09T19:07:24;16.00;80.80
44359;DHT22;30077;52.474;13.326;2023-05-09T19:12:26;15.90;81.30
44359;DHT22;30077;52.474;13.326;2023-05-09T19:17:27;15.80;81.40
44359;DHT22;30077;52.474;13.326;2023-05-09T19:22:29;15.70;81.20
44359;DHT22;30077;52.474;13.326;2023-05-09T19:27:30;15.70;81.70
44359;DHT22;30077;52.474;13.326;2023-05-09T19:32:31;15.70;81.80
44359;DHT22;30077;52.474;13.326;2023-05-09T19:37:31;15.60;81.60
44359;DHT22;30077;52.474;13.326;2023-05-09T19:42:32;15.60;81.90
44359;DHT22;30077;52.474;13.326;2023-05-09T19:47:33;15.40;82.10
44359;DHT22;30077;52.474;13.326;2023-05-09T19:52:33;15.40;82.30
44359;DHT22;30077;52.474;13.326;2023-05-09T19:57:36;15.30;82.70
44359;DHT22;30077;52.474;13.326;2023-05-09T20:02:37;15.20;83.00
44359;DHT22;30077;52.474;13.326;2023-05-09T20:07:38;15.20;83.30
44359;DHT22;30077;52.474;13.326;2023-05-09T20:12:39;15.10;83.70
44359;DHT22;30077;52.474;13.326;2023-05-09T20:17:40;15.10;83.60
44359;DHT22;30077;52.474;13.326;2023-05-09T20:22:40;15.10;83.60
44359;DHT22;30077;52.474;13.326;2023-05-09T20:27:41;15.00;84.00
44359;DHT22;30077;52.474;13.326;2023-05-09T20:32:42;15.00;84.40
44359;DHT22;30077;52.474;13.326;2023-05-09T20:37:43;14.90;84.90
44359;DHT22;30077;52.474;13.326;2023-05-09T20:42:45;14.80;85.50
44359;DHT22;30077;52.474;13.326;2023-05-09T20:47:46;14.80;86.10
44359;DHT22;30077;52.474;13.326;2023-05-09T20:52:47;14.80;87.00
44359;DHT22;30077;52.474;13.326;2023-05-09T20:57:48;14.70;87.90
44359;DHT22;30077;52.474;13.326;2023-05-09T21:02:48;14.60;88.40
44359;DHT22;30077;52.474;13.326;2023-05-09T21:07:49;14.60;89.00
44359;DHT22;30077;52.474;13.326;2023-05-09T21:12:49;14.50;89.80
44359;DHT22;30077;52.474;13.326;2023-05-09T21:17:50;14.40;90.10
44359;DHT22;30077;52.474;13.326;2023-05-09T21:22:51;14.40;90.20
44359;DHT22;30077;52.474;13.326;2023-05-09T21:27:51;14.40;90.60
44359;DHT22;30077;52.474;13.326;2023-05-09T21:32:52;14.30;90.80
44359;DHT22;30077;52.474;13.326;2023-05-09T21:37:53;14.30;91.00
44359;DHT22;30077;52.474;13.326;2023-05-09T21:42:53;14.20;91.40
44359;DHT22;30077;52.474;13.326;2023-05-09T21:47:53;14.10;91.60
44359;DHT22;30077;52.474;13.326;2023-05-09T21:52:54;14.10;92.00
44359;DHT22;30077;52.474;13.326;2023-05-09T21:57:55;14.10;92.30
44359;DHT22;30077;52.474;13.326;2023-05-09T22:02:57;13.90;92.70
44359;DHT22;30077;52.474;13.326;2023-05-09T22:07:57;13.80;93.10
44359;DHT22;30077;52.474;13.326;2023-05-09T22:12:58;13.80;93.70
44359;DHT22;30077;52.474;13.326;2023-05-09T22:17:58;13.70;94.00
44359;DHT22;30077;52.474;13.326;2023-05-09T22:22:59;13.70;94.50
44359;DHT22;30077;52.474;13.326;2023-05-09T22:28:00;13.60;95.00
44359;DHT22;30077;52.474;13.326;2023-05-09T22:33:01;13.50;95.40
44359;DHT22;30077;52.474;13.326;2023-05-09T22:38:01;13.50;95.90
44359;DHT22;30077;52.474;13.326;2023-05-09T22:43:02;13.40;96.60
44359;DHT22;30077;52.474;13.326;2023-05-09T22:48:03;13.30;97.20
44359;DHT22;30077;52.474;13.326;2023-05-09T22:53:03;13.30;97.70
44359;DHT22;30077;52.474;13.326;2023-05-09T22:58:04;13.20;98.50
44359;DHT22;30077;52.474;13.326;2023-05-09T23:03:05;13.10;98.90
44359;DHT22;30077;52.474;13.326;2023-05-09T23:08:05;13.10;99.50
44359;DHT22;30077;52.474;13.326;2023-05-09T23:13:06;13.10;99.90
44359;DHT22;30077;52.474;13.326;2023-05-09T23:18:07;13.00;99.90
44359;DHT22;30077;52.474;13.326;2023-05-09T23:23:07;12.90;99.90
44359;DHT22;30077;52.474;13.326;2023-05-09T23:28:08;12.90;99.90
44359;DHT22;30077;52.474;13.326;2023-05-09T23:33:08;12.80;99.90
44359;DHT22;30077;52.474;13.326;2023-05-09T23:38:08;12.80;99.90
44359;DHT22;30077;52.474;13.326;2023-05-09T23:43:09;12.70;99.90
44359;DHT22;30077;52.474;13.326;2023-05-09T23:48:09;12.70;99.90
44359;DHT22;30077;52.474;13.326;2023-05-09T23:53:10;12.70;99.90
44359;DHT22;30077;52.474;13.326;2023-05-09T23:58:11;12.60;99.90
